KCVS

Cannon AFB Airport

Clovis, New Mexico, USA
METAR KCVS 220013Z AUTO 09008KT 10SM SCT023 M02/M12 A3020 RMK AO2 SLPNO $
Observed Flight Rules
Feb-22 @ 00:13 UTC (4 hours ago) Visual Flight Rules
Wind Visibility Clouds
90° at 8 knots 10 miles
  • Scattered at 2,300' AGL
Temperatures Readings
Current -2°C / 28°F
Dewpoint -12°C / 10°F
Humidity 47%
Altimeter 30.2" Hg
Pressure 1023 hPa
Elevation 1309
METAR KCVS 220013Z AUTO 09008KT 10SM SCT023 M02/M12 A3020 RMK AO2 SLPNO $
Observed Flight Rules
Feb-22 @ 00:13 UTC
(4 hours ago)
VFR
Wind Visibility
90° at 8 knots 10 miles
Clouds
  • Scattered at 2,300' AGL
Temperature Dewpoint
-2°C / 28°F -12°C / 10°F
Humidity Altimeter Pressure
47% 30.2" Hg 1023 hPa